sensor_id;sensor_type;location;lat;lon;timestamp;P1;durP1;ratioP1;P2;durP2;ratioP2
79578;SDS011;69051;52.406;5.280;2023-07-31T00:01:30;3.15;;;1.13;;
79578;SDS011;69051;52.406;5.280;2023-07-31T00:03:56;3.78;;;1.23;;
79578;SDS011;69051;52.406;5.280;2023-07-31T00:06:23;2.97;;;1.15;;
79578;SDS011;69051;52.406;5.280;2023-07-31T00:08:49;3.35;;;1.02;;
79578;SDS011;69051;52.406;5.280;2023-07-31T00:11:15;3.55;;;1.20;;
79578;SDS011;69051;52.406;5.280;2023-07-31T00:13:42;3.92;;;1.10;;
79578;SDS011;69051;52.406;5.280;2023-07-31T00:16:08;3.55;;;1.38;;
79578;SDS011;69051;52.406;5.280;2023-07-31T00:18:35;3.80;;;1.45;;
79578;SDS011;69051;52.406;5.280;2023-07-31T00:21:01;5.78;;;1.10;;
79578;SDS011;69051;52.406;5.280;2023-07-31T00:23:28;9.80;;;1.42;;
79578;SDS011;69051;52.406;5.280;2023-07-31T00:25:55;5.55;;;1.40;;
79578;SDS011;69051;52.406;5.280;2023-07-31T00:28:21;7.93;;;2.17;;
79578;SDS011;69051;52.406;5.280;2023-07-31T00:30:47;10.60;;;1.90;;
79578;SDS011;69051;52.406;5.280;2023-07-31T00:33:14;9.70;;;2.17;;
79578;SDS011;69051;52.406;5.280;2023-07-31T00:35:41;9.98;;;1.88;;
79578;SDS011;69051;52.406;5.280;2023-07-31T00:38:07;12.82;;;2.50;;
79578;SDS011;69051;52.406;5.280;2023-07-31T00:40:34;18.17;;;2.22;;
79578;SDS011;69051;52.406;5.280;2023-07-31T00:43:02;12.63;;;2.42;;
79578;SDS011;69051;52.406;5.280;2023-07-31T00:45:29;13.13;;;2.72;;
79578;SDS011;69051;52.406;5.280;2023-07-31T00:47:57;18.13;;;2.83;;
79578;SDS011;69051;52.406;5.280;2023-07-31T00:50:24;11.98;;;2.40;;
79578;SDS011;69051;52.406;5.280;2023-07-31T00:52:51;13.15;;;2.60;;
79578;SDS011;69051;52.406;5.280;2023-07-31T00:55:17;10.80;;;2.88;;
79578;SDS011;69051;52.406;5.280;2023-07-31T00:57:45;17.05;;;3.15;;
79578;SDS011;69051;52.406;5.280;2023-07-31T01:00:12;11.90;;;2.90;;
79578;SDS011;69051;52.406;5.280;2023-07-31T01:02:38;14.48;;;2.83;;
79578;SDS011;69051;52.406;5.280;2023-07-31T01:05:05;14.32;;;2.72;;
79578;SDS011;69051;52.406;5.280;2023-07-31T01:07:37;11.48;;;2.83;;
79578;SDS011;69051;52.406;5.280;2023-07-31T01:10:15;11.77;;;2.50;;
79578;SDS011;69051;52.406;5.280;2023-07-31T01:12:45;14.45;;;2.50;;
79578;SDS011;69051;52.406;5.280;2023-07-31T01:15:12;9.30;;;2.90;;
79578;SDS011;69051;52.406;5.280;2023-07-31T01:17:41;13.38;;;2.60;;
79578;SDS011;69051;52.406;5.280;2023-07-31T01:20:17;10.10;;;2.55;;
79578;SDS011;69051;52.406;5.280;2023-07-31T01:31:00;11.20;;;2.65;;
79578;SDS011;69051;52.406;5.280;2023-07-31T01:33:28;16.08;;;3.58;;
79578;SDS011;69051;52.406;5.280;2023-07-31T01:35:54;12.88;;;2.88;;
79578;SDS011;69051;52.406;5.280;2023-07-31T01:38:22;11.38;;;2.80;;
79578;SDS011;69051;52.406;5.280;2023-07-31T01:40:52;15.90;;;3.70;;
79578;SDS011;69051;52.406;5.280;2023-07-31T01:43:19;10.98;;;3.00;;
79578;SDS011;69051;52.406;5.280;2023-07-31T01:45:46;24.80;;;4.80;;
79578;SDS011;69051;52.406;5.280;2023-07-31T01:48:12;15.10;;;3.55;;
79578;SDS011;69051;52.406;5.280;2023-07-31T01:50:39;16.08;;;5.78;;
79578;SDS011;69051;52.406;5.280;2023-07-31T01:53:05;19.48;;;3.90;;
79578;SDS011;69051;52.406;5.280;2023-07-31T01:55:32;16.85;;;3.83;;
79578;SDS011;69051;52.406;5.280;2023-07-31T01:57:58;15.50;;;4.05;;
79578;SDS011;69051;52.406;5.280;2023-07-31T02:00:25;18.40;;;4.65;;
79578;SDS011;69051;52.406;5.280;2023-07-31T02:02:51;16.58;;;4.07;;
79578;SDS011;69051;52.406;5.280;2023-07-31T02:05:18;13.35;;;3.35;;
79578;SDS011;69051;52.406;5.280;2023-07-31T02:07:44;16.35;;;3.90;;
79578;SDS011;69051;52.406;5.280;2023-07-31T02:10:11;14.85;;;3.75;;
79578;SDS011;69051;52.406;5.280;2023-07-31T02:12:37;20.48;;;4.72;;
79578;SDS011;69051;52.406;5.280;2023-07-31T02:15:04;20.27;;;4.55;;
79578;SDS011;69051;52.406;5.280;2023-07-31T02:17:31;30.50;;;4.40;;
79578;SDS011;69051;52.406;5.280;2023-07-31T02:19:57;22.45;;;4.50;;
79578;SDS011;69051;52.406;5.280;2023-07-31T02:22:24;17.98;;;5.10;;
79578;SDS011;69051;52.406;5.280;2023-07-31T02:24:50;22.45;;;4.97;;
79578;SDS011;69051;52.406;5.280;2023-07-31T02:27:17;23.10;;;4.93;;
79578;SDS011;69051;52.406;5.280;2023-07-31T02:29:43;22.38;;;5.20;;
79578;SDS011;69051;52.406;5.280;2023-07-31T02:32:10;29.30;;;5.53;;
79578;SDS011;69051;52.406;5.280;2023-07-31T02:34:37;28.77;;;5.75;;
79578;SDS011;69051;52.406;5.280;2023-07-31T02:37:03;23.38;;;6.07;;
79578;SDS011;69051;52.406;5.280;2023-07-31T02:39:30;31.70;;;5.32;;
79578;SDS011;69051;52.406;5.280;2023-07-31T02:41:56;33.17;;;5.75;;
79578;SDS011;69051;52.406;5.280;2023-07-31T02:44:23;33.83;;;6.28;;
79578;SDS011;69051;52.406;5.280;2023-07-31T02:46:50;32.10;;;6.97;;
79578;SDS011;69051;52.406;5.280;2023-07-31T02:49:16;23.65;;;6.07;;
79578;SDS011;69051;52.406;5.280;2023-07-31T02:51:43;31.45;;;6.47;;
79578;SDS011;69051;52.406;5.280;2023-07-31T02:54:09;27.55;;;5.75;;
79578;SDS011;69051;52.406;5.280;2023-07-31T02:56:36;32.35;;;6.28;;
79578;SDS011;69051;52.406;5.280;2023-07-31T02:59:03;29.80;;;5.90;;
79578;SDS011;69051;52.406;5.280;2023-07-31T03:01:29;29.98;;;5.50;;
79578;SDS011;69051;52.406;5.280;2023-07-31T03:03:57;29.05;;;6.47;;
79578;SDS011;69051;52.406;5.280;2023-07-31T03:06:23;33.33;;;6.50;;
79578;SDS011;69051;52.406;5.280;2023-07-31T03:08:50;24.00;;;4.70;;
79578;SDS011;69051;52.406;5.280;2023-07-31T03:11:16;30.88;;;5.57;;
79578;SDS011;69051;52.406;5.280;2023-07-31T03:13:43;29.15;;;6.40;;
79578;SDS011;69051;52.406;5.280;2023-07-31T03:16:09;22.10;;;4.70;;
79578;SDS011;69051;52.406;5.280;2023-07-31T03:18:35;30.35;;;5.78;;
79578;SDS011;69051;52.406;5.280;2023-07-31T03:21:02;30.58;;;8.13;;
79578;SDS011;69051;52.406;5.280;2023-07-31T03:23:28;26.30;;;5.97;;
79578;SDS011;69051;52.406;5.280;2023-07-31T03:25:58;23.92;;;5.93;;
79578;SDS011;69051;52.406;5.280;2023-07-31T03:28:27;28.50;;;6.43;;
79578;SDS011;69051;52.406;5.280;2023-07-31T03:30:54;29.10;;;6.32;;
79578;SDS011;69051;52.406;5.280;2023-07-31T03:33:20;29.20;;;6.45;;
79578;SDS011;69051;52.406;5.280;2023-07-31T03:35:47;29.38;;;6.20;;
79578;SDS011;69051;52.406;5.280;2023-07-31T03:38:13;36.10;;;6.40;;
79578;SDS011;69051;52.406;5.280;2023-07-31T03:40:40;31.63;;;6.45;;
79578;SDS011;69051;52.406;5.280;2023-07-31T03:43:06;31.77;;;5.22;;
79578;SDS011;69051;52.406;5.280;2023-07-31T03:45:33;42.10;;;7.43;;
79578;SDS011;69051;52.406;5.280;2023-07-31T03:47:59;32.45;;;6.35;;
79578;SDS011;69051;52.406;5.280;2023-07-31T03:50:26;20.67;;;5.40;;
79578;SDS011;69051;52.406;5.280;2023-07-31T03:52:52;24.65;;;5.82;;
79578;SDS011;69051;52.406;5.280;2023-07-31T03:55:19;23.02;;;5.03;;
79578;SDS011;69051;52.406;5.280;2023-07-31T03:57:46;27.80;;;6.32;;
79578;SDS011;69051;52.406;5.280;2023-07-31T04:00:12;33.90;;;6.25;;
79578;SDS011;69051;52.406;5.280;2023-07-31T04:02:39;26.63;;;6.15;;
79578;SDS011;69051;52.406;5.280;2023-07-31T04:05:06;29.63;;;6.07;;
79578;SDS011;69051;52.406;5.280;2023-07-31T04:07:33;27.58;;;6.35;;
79578;SDS011;69051;52.406;5.280;2023-07-31T04:09:59;39.38;;;7.50;;
79578;SDS011;69051;52.406;5.280;2023-07-31T04:12:26;30.48;;;5.75;;
79578;SDS011;69051;52.406;5.280;2023-07-31T04:14:52;25.02;;;6.07;;
79578;SDS011;69051;52.406;5.280;2023-07-31T04:17:19;26.65;;;6.20;;
79578;SDS011;69051;52.406;5.280;2023-07-31T04:19:45;35.90;;;6.78;;
79578;SDS011;69051;52.406;5.280;2023-07-31T04:22:12;34.50;;;6.50;;
79578;SDS011;69051;52.406;5.280;2023-07-31T04:24:38;28.85;;;6.72;;
79578;SDS011;69051;52.406;5.280;2023-07-31T04:27:05;31.48;;;5.85;;
79578;SDS011;69051;52.406;5.280;2023-07-31T04:29:31;28.20;;;6.65;;
79578;SDS011;69051;52.406;5.280;2023-07-31T04:31:58;26.98;;;6.50;;
79578;SDS011;69051;52.406;5.280;2023-07-31T04:34:24;28.52;;;6.68;;
79578;SDS011;69051;52.406;5.280;2023-07-31T04:36:51;34.95;;;6.05;;
79578;SDS011;69051;52.406;5.280;2023-07-31T04:39:17;34.55;;;7.28;;
79578;SDS011;69051;52.406;5.280;2023-07-31T04:41:44;24.20;;;6.70;;
79578;SDS011;69051;52.406;5.280;2023-07-31T04:44:10;32.80;;;6.63;;
79578;SDS011;69051;52.406;5.280;2023-07-31T04:46:37;27.02;;;6.68;;
79578;SDS011;69051;52.406;5.280;2023-07-31T04:49:04;31.92;;;7.53;;
79578;SDS011;69051;52.406;5.280;2023-07-31T04:51:31;26.48;;;5.70;;
79578;SDS011;69051;52.406;5.280;2023-07-31T04:53:57;26.33;;;6.38;;
79578;SDS011;69051;52.406;5.280;2023-07-31T04:56:24;30.55;;;5.57;;
79578;SDS011;69051;52.406;5.280;2023-07-31T04:58:50;28.90;;;6.25;;
79578;SDS011;69051;52.406;5.280;2023-07-31T05:01:17;33.92;;;6.20;;
79578;SDS011;69051;52.406;5.280;2023-07-31T05:03:43;24.30;;;6.00;;
79578;SDS011;69051;52.406;5.280;2023-07-31T05:06:10;35.67;;;6.95;;
79578;SDS011;69051;52.406;5.280;2023-07-31T05:08:36;29.02;;;6.47;;
79578;SDS011;69051;52.406;5.280;2023-07-31T05:11:03;24.77;;;5.43;;
79578;SDS011;69051;52.406;5.280;2023-07-31T05:13:29;28.23;;;6.40;;
79578;SDS011;69051;52.406;5.280;2023-07-31T05:15:56;22.63;;;6.35;;
79578;SDS011;69051;52.406;5.280;2023-07-31T05:18:24;21.75;;;5.30;;
79578;SDS011;69051;52.406;5.280;2023-07-31T05:20:50;27.45;;;5.78;;
79578;SDS011;69051;52.406;5.280;2023-07-31T05:23:17;20.35;;;5.50;;
79578;SDS011;69051;52.406;5.280;2023-07-31T05:25:43;22.60;;;5.30;;
79578;SDS011;69051;52.406;5.280;2023-07-31T05:28:11;17.55;;;4.78;;
79578;SDS011;69051;52.406;5.280;2023-07-31T05:30:38;14.45;;;4.28;;
79578;SDS011;69051;52.406;5.280;2023-07-31T05:33:04;14.25;;;3.72;;
79578;SDS011;69051;52.406;5.280;2023-07-31T05:35:31;10.73;;;3.38;;
79578;SDS011;69051;52.406;5.280;2023-07-31T05:37:57;12.23;;;4.05;;
79578;SDS011;69051;52.406;5.280;2023-07-31T05:40:24;13.85;;;3.75;;
79578;SDS011;69051;52.406;5.280;2023-07-31T05:42:50;10.88;;;3.08;;
79578;SDS011;69051;52.406;5.280;2023-07-31T05:45:17;10.63;;;3.42;;
79578;SDS011;69051;52.406;5.280;2023-07-31T05:47:43;7.75;;;2.35;;
79578;SDS011;69051;52.406;5.280;2023-07-31T05:50:10;6.32;;;2.30;;
79578;SDS011;69051;52.406;5.280;2023-07-31T05:52:36;8.30;;;2.53;;
79578;SDS011;69051;52.406;5.280;2023-07-31T05:55:03;7.43;;;2.92;;
79578;SDS011;69051;52.406;5.280;2023-07-31T05:57:29;7.50;;;2.55;;
79578;SDS011;69051;52.406;5.280;2023-07-31T05:59:56;8.68;;;2.70;;
79578;SDS011;69051;52.406;5.280;2023-07-31T06:02:22;8.10;;;2.40;;
79578;SDS011;69051;52.406;5.280;2023-07-31T06:04:49;7.43;;;2.72;;
79578;SDS011;69051;52.406;5.280;2023-07-31T06:07:16;9.50;;;2.42;;
79578;SDS011;69051;52.406;5.280;2023-07-31T06:09:42;9.10;;;2.78;;
79578;SDS011;69051;52.406;5.280;2023-07-31T06:12:09;8.45;;;2.03;;
79578;SDS011;69051;52.406;5.280;2023-07-31T06:14:35;7.22;;;2.33;;
79578;SDS011;69051;52.406;5.280;2023-07-31T06:17:02;8.30;;;2.20;;
79578;SDS011;69051;52.406;5.280;2023-07-31T06:19:28;7.57;;;2.55;;
79578;SDS011;69051;52.406;5.280;2023-07-31T06:21:54;5.05;;;1.90;;
79578;SDS011;69051;52.406;5.280;2023-07-31T06:24:21;7.82;;;2.50;;
79578;SDS011;69051;52.406;5.280;2023-07-31T06:26:48;7.97;;;2.30;;
79578;SDS011;69051;52.406;5.280;2023-07-31T06:29:14;7.10;;;2.20;;
79578;SDS011;69051;52.406;5.280;2023-07-31T06:31:41;6.25;;;2.22;;
79578;SDS011;69051;52.406;5.280;2023-07-31T06:34:07;7.43;;;2.30;;
79578;SDS011;69051;52.406;5.280;2023-07-31T06:36:34;6.38;;;1.90;;
79578;SDS011;69051;52.406;5.280;2023-07-31T06:39:00;7.00;;;1.92;;
79578;SDS011;69051;52.406;5.280;2023-07-31T06:41:27;8.63;;;2.15;;
79578;SDS011;69051;52.406;5.280;2023-07-31T06:43:53;5.45;;;2.03;;
79578;SDS011;69051;52.406;5.280;2023-07-31T06:46:20;8.05;;;2.92;;
79578;SDS011;69051;52.406;5.280;2023-07-31T06:48:46;7.40;;;2.30;;
79578;SDS011;69051;52.406;5.280;2023-07-31T06:51:13;8.68;;;2.40;;
79578;SDS011;69051;52.406;5.280;2023-07-31T06:53:39;6.53;;;2.00;;
79578;SDS011;69051;52.406;5.280;2023-07-31T06:56:06;6.28;;;1.80;;
79578;SDS011;69051;52.406;5.280;2023-07-31T06:58:32;6.25;;;2.40;;
79578;SDS011;69051;52.406;5.280;2023-07-31T07:00:59;8.32;;;1.90;;
79578;SDS011;69051;52.406;5.280;2023-07-31T07:03:25;4.57;;;1.67;;
79578;SDS011;69051;52.406;5.280;2023-07-31T07:05:52;4.72;;;2.10;;
79578;SDS011;69051;52.406;5.280;2023-07-31T07:08:18;5.85;;;1.70;;
79578;SDS011;69051;52.406;5.280;2023-07-31T07:10:45;6.40;;;1.90;;
79578;SDS011;69051;52.406;5.280;2023-07-31T07:13:11;5.38;;;1.67;;
79578;SDS011;69051;52.406;5.280;2023-07-31T07:15:38;5.63;;;2.00;;
79578;SDS011;69051;52.406;5.280;2023-07-31T07:18:05;6.35;;;1.55;;
79578;SDS011;69051;52.406;5.280;2023-07-31T07:20:32;4.43;;;1.75;;
79578;SDS011;69051;52.406;5.280;2023-07-31T07:22:59;7.45;;;1.85;;
79578;SDS011;69051;52.406;5.280;2023-07-31T07:27:55;3.83;;;1.52;;
79578;SDS011;69051;52.406;5.280;2023-07-31T07:30:22;5.68;;;1.80;;
79578;SDS011;69051;52.406;5.280;2023-07-31T07:32:51;5.72;;;1.52;;
79578;SDS011;69051;52.406;5.280;2023-07-31T07:35:17;5.80;;;1.40;;
79578;SDS011;69051;52.406;5.280;2023-07-31T07:37:44;3.53;;;1.58;;
79578;SDS011;69051;52.406;5.280;2023-07-31T07:40:10;3.33;;;1.30;;
79578;SDS011;69051;52.406;5.280;2023-07-31T07:42:37;3.55;;;1.50;;
79578;SDS011;69051;52.406;5.280;2023-07-31T07:45:04;4.38;;;1.20;;
79578;SDS011;69051;52.406;5.280;2023-07-31T07:47:31;3.92;;;1.95;;
79578;SDS011;69051;52.406;5.280;2023-07-31T07:49:57;5.07;;;1.30;;
79578;SDS011;69051;52.406;5.280;2023-07-31T07:52:24;3.55;;;1.42;;
79578;SDS011;69051;52.406;5.280;2023-07-31T07:54:50;4.85;;;1.42;;
79578;SDS011;69051;52.406;5.280;2023-07-31T07:57:17;3.15;;;1.20;;
79578;SDS011;69051;52.406;5.280;2023-07-31T07:59:44;3.08;;;1.30;;
79578;SDS011;69051;52.406;5.280;2023-07-31T08:02:12;3.40;;;1.30;;
79578;SDS011;69051;52.406;5.280;2023-07-31T08:04:38;2.47;;;1.20;;
79578;SDS011;69051;52.406;5.280;2023-07-31T08:07:05;2.38;;;1.35;;
79578;SDS011;69051;52.406;5.280;2023-07-31T08:09:31;2.78;;;1.05;;
79578;SDS011;69051;52.406;5.280;2023-07-31T08:11:58;2.97;;;1.27;;
79578;SDS011;69051;52.406;5.280;2023-07-31T08:14:28;3.47;;;1.20;;
79578;SDS011;69051;52.406;5.280;2023-07-31T08:16:58;2.97;;;0.90;;
79578;SDS011;69051;52.406;5.280;2023-07-31T08:19:25;2.35;;;1.00;;
79578;SDS011;69051;52.406;5.280;2023-07-31T08:21:52;1.52;;;0.90;;
79578;SDS011;69051;52.406;5.280;2023-07-31T08:24:21;2.28;;;1.02;;
79578;SDS011;69051;52.406;5.280;2023-07-31T08:26:48;2.40;;;0.90;;
79578;SDS011;69051;52.406;5.280;2023-07-31T08:29:14;2.15;;;1.00;;
79578;SDS011;69051;52.406;5.280;2023-07-31T08:31:41;1.70;;;0.88;;
79578;SDS011;69051;52.406;5.280;2023-07-31T08:34:07;1.83;;;1.10;;
79578;SDS011;69051;52.406;5.280;2023-07-31T08:36:34;1.30;;;0.80;;
79578;SDS011;69051;52.406;5.280;2023-07-31T08:39:00;2.13;;;0.80;;
79578;SDS011;69051;52.406;5.280;2023-07-31T08:41:27;2.72;;;1.33;;
79578;SDS011;69051;52.406;5.280;2023-07-31T08:43:53;3.50;;;1.10;;
79578;SDS011;69051;52.406;5.280;2023-07-31T08:46:21;2.63;;;1.00;;
79578;SDS011;69051;52.406;5.280;2023-07-31T08:48:48;2.08;;;0.98;;
79578;SDS011;69051;52.406;5.280;2023-07-31T08:51:14;2.60;;;0.90;;
79578;SDS011;69051;52.406;5.280;2023-07-31T08:53:41;2.83;;;0.75;;
79578;SDS011;69051;52.406;5.280;2023-07-31T08:56:08;1.48;;;0.80;;
79578;SDS011;69051;52.406;5.280;2023-07-31T08:58:35;3.10;;;0.85;;
79578;SDS011;69051;52.406;5.280;2023-07-31T09:01:03;1.85;;;0.70;;
79578;SDS011;69051;52.406;5.280;2023-07-31T09:03:31;1.48;;;0.80;;
79578;SDS011;69051;52.406;5.280;2023-07-31T09:06:00;2.13;;;0.60;;
79578;SDS011;69051;52.406;5.280;2023-07-31T09:08:27;1.40;;;0.73;;
79578;SDS011;69051;52.406;5.280;2023-07-31T09:10:59;1.70;;;0.70;;
79578;SDS011;69051;52.406;5.280;2023-07-31T09:13:28;1.50;;;0.80;;
79578;SDS011;69051;52.406;5.280;2023-07-31T09:15:55;1.40;;;0.70;;
79578;SDS011;69051;52.406;5.280;2023-07-31T09:18:22;1.27;;;0.70;;
79578;SDS011;69051;52.406;5.280;2023-07-31T09:21:05;2.08;;;0.60;;
79578;SDS011;69051;52.406;5.280;2023-07-31T09:23:42;1.92;;;0.60;;
79578;SDS011;69051;52.406;5.280;2023-07-31T09:26:10;2.80;;;0.80;;
79578;SDS011;69051;52.406;5.280;2023-07-31T09:28:36;1.25;;;0.60;;
79578;SDS011;69051;52.406;5.280;2023-07-31T09:31:03;1.23;;;0.50;;
79578;SDS011;69051;52.406;5.280;2023-07-31T09:33:29;1.58;;;0.60;;
79578;SDS011;69051;52.406;5.280;2023-07-31T09:35:58;0.80;;;0.50;;
79578;SDS011;69051;52.406;5.280;2023-07-31T09:38:26;1.52;;;0.60;;
79578;SDS011;69051;52.406;5.280;2023-07-31T09:40:52;2.58;;;0.70;;
79578;SDS011;69051;52.406;5.280;2023-07-31T09:43:19;2.67;;;0.70;;
79578;SDS011;69051;52.406;5.280;2023-07-31T09:45:47;2.85;;;0.68;;
79578;SDS011;69051;52.406;5.280;2023-07-31T09:48:17;1.70;;;0.52;;
79578;SDS011;69051;52.406;5.280;2023-07-31T09:50:45;4.63;;;1.00;;
79578;SDS011;69051;52.406;5.280;2023-07-31T09:53:12;3.15;;;1.10;;
79578;SDS011;69051;52.406;5.280;2023-07-31T09:55:40;3.92;;;1.00;;
79578;SDS011;69051;52.406;5.280;2023-07-31T09:58:07;6.28;;;1.83;;
79578;SDS011;69051;52.406;5.280;2023-07-31T10:00:36;9.75;;;1.58;;
79578;SDS011;69051;52.406;5.280;2023-07-31T10:03:06;8.85;;;1.27;;
79578;SDS011;69051;52.406;5.280;2023-07-31T10:08:03;5.82;;;1.20;;
79578;SDS011;69051;52.406;5.280;2023-07-31T10:10:30;6.88;;;1.45;;
79578;SDS011;69051;52.406;5.280;2023-07-31T10:12:57;7.57;;;1.42;;
79578;SDS011;69051;52.406;5.280;2023-07-31T10:15:25;5.25;;;1.27;;
79578;SDS011;69051;52.406;5.280;2023-07-31T10:17:52;5.22;;;1.10;;
79578;SDS011;69051;52.406;5.280;2023-07-31T10:20:21;5.32;;;1.38;;
79578;SDS011;69051;52.406;5.280;2023-07-31T10:22:47;8.30;;;1.40;;
79578;SDS011;69051;52.406;5.280;2023-07-31T10:25:17;7.78;;;1.30;;
79578;SDS011;69051;52.406;5.280;2023-07-31T10:27:44;10.43;;;2.28;;
79578;SDS011;69051;52.406;5.280;2023-07-31T10:30:12;13.68;;;2.20;;
79578;SDS011;69051;52.406;5.280;2023-07-31T10:32:45;13.05;;;2.08;;
79578;SDS011;69051;52.406;5.280;2023-07-31T10:35:12;13.13;;;2.55;;
79578;SDS011;69051;52.406;5.280;2023-07-31T10:37:39;10.75;;;2.53;;
79578;SDS011;69051;52.406;5.280;2023-07-31T10:40:18;14.65;;;2.10;;
79578;SDS011;69051;52.406;5.280;2023-07-31T10:42:49;8.60;;;2.30;;
79578;SDS011;69051;52.406;5.280;2023-07-31T10:45:33;15.18;;;2.75;;
79578;SDS011;69051;52.406;5.280;2023-07-31T10:48:22;13.55;;;2.75;;
79578;SDS011;69051;52.406;5.280;2023-07-31T10:50:56;13.57;;;2.88;;
79578;SDS011;69051;52.406;5.280;2023-07-31T10:53:24;9.13;;;2.65;;
79578;SDS011;69051;52.406;5.280;2023-07-31T10:55:51;9.93;;;2.33;;
79578;SDS011;69051;52.406;5.280;2023-07-31T10:58:20;15.02;;;2.45;;
79578;SDS011;69051;52.406;5.280;2023-07-31T11:00:48;9.50;;;2.35;;
79578;SDS011;69051;52.406;5.280;2023-07-31T11:03:16;10.07;;;3.00;;
79578;SDS011;69051;52.406;5.280;2023-07-31T11:08:26;14.55;;;2.70;;
79578;SDS011;69051;52.406;5.280;2023-07-31T11:13:30;9.70;;;1.90;;
79578;SDS011;69051;52.406;5.280;2023-07-31T11:15:57;11.52;;;2.00;;
79578;SDS011;69051;52.406;5.280;2023-07-31T11:18:24;9.57;;;2.35;;
79578;SDS011;69051;52.406;5.280;2023-07-31T11:20:53;11.32;;;2.13;;
79578;SDS011;69051;52.406;5.280;2023-07-31T11:23:21;10.07;;;2.17;;
79578;SDS011;69051;52.406;5.280;2023-07-31T11:25:48;10.55;;;2.40;;
79578;SDS011;69051;52.406;5.280;2023-07-31T11:28:16;11.98;;;2.45;;
79578;SDS011;69051;52.406;5.280;2023-07-31T11:30:43;10.93;;;2.22;;
79578;SDS011;69051;52.406;5.280;2023-07-31T11:33:11;8.45;;;2.10;;
79578;SDS011;69051;52.406;5.280;2023-07-31T11:35:45;9.10;;;2.13;;
79578;SDS011;69051;52.406;5.280;2023-07-31T11:38:24;13.75;;;2.50;;
79578;SDS011;69051;52.406;5.280;2023-07-31T11:40:53;15.50;;;3.00;;
79578;SDS011;69051;52.406;5.280;2023-07-31T11:43:26;9.27;;;2.20;;
79578;SDS011;69051;52.406;5.280;2023-07-31T11:45:55;13.65;;;2.38;;
79578;SDS011;69051;52.406;5.280;2023-07-31T11:48:23;10.95;;;2.50;;
79578;SDS011;69051;52.406;5.280;2023-07-31T11:50:51;8.13;;;2.15;;
79578;SDS011;69051;52.406;5.280;2023-07-31T11:53:23;11.43;;;2.53;;
79578;SDS011;69051;52.406;5.280;2023-07-31T11:55:53;8.52;;;2.20;;
79578;SDS011;69051;52.406;5.280;2023-07-31T11:58:20;9.02;;;1.88;;
79578;SDS011;69051;52.406;5.280;2023-07-31T12:00:47;13.40;;;2.28;;
79578;SDS011;69051;52.406;5.280;2023-07-31T12:03:14;10.48;;;2.28;;
79578;SDS011;69051;52.406;5.280;2023-07-31T12:05:41;13.82;;;2.10;;
79578;SDS011;69051;52.406;5.280;2023-07-31T12:08:11;10.43;;;2.25;;
79578;SDS011;69051;52.406;5.280;2023-07-31T12:10:42;8.57;;;2.03;;
79578;SDS011;69051;52.406;5.280;2023-07-31T12:13:11;12.32;;;2.03;;
79578;SDS011;69051;52.406;5.280;2023-07-31T12:15:41;13.00;;;2.38;;
79578;SDS011;69051;52.406;5.280;2023-07-31T12:18:13;9.60;;;2.42;;
79578;SDS011;69051;52.406;5.280;2023-07-31T12:20:45;11.18;;;2.35;;
79578;SDS011;69051;52.406;5.280;2023-07-31T12:23:19;9.52;;;2.95;;
79578;SDS011;69051;52.406;5.280;2023-07-31T12:26:11;11.45;;;2.70;;
79578;SDS011;69051;52.406;5.280;2023-07-31T12:28:47;10.43;;;2.35;;
79578;SDS011;69051;52.406;5.280;2023-07-31T12:31:18;9.75;;;2.50;;
79578;SDS011;69051;52.406;5.280;2023-07-31T12:33:46;12.20;;;1.88;;
79578;SDS011;69051;52.406;5.280;2023-07-31T12:36:16;13.90;;;2.45;;
79578;SDS011;69051;52.406;5.280;2023-07-31T12:38:43;8.68;;;2.25;;
79578;SDS011;69051;52.406;5.280;2023-07-31T12:41:11;13.77;;;2.33;;
79578;SDS011;69051;52.406;5.280;2023-07-31T12:43:38;6.13;;;2.00;;
79578;SDS011;69051;52.406;5.280;2023-07-31T12:46:07;10.30;;;2.13;;
79578;SDS011;69051;52.406;5.280;2023-07-31T12:48:37;13.88;;;2.22;;
79578;SDS011;69051;52.406;5.280;2023-07-31T12:51:05;12.18;;;2.53;;
79578;SDS011;69051;52.406;5.280;2023-07-31T12:53:35;10.43;;;2.22;;
79578;SDS011;69051;52.406;5.280;2023-07-31T12:56:02;12.77;;;2.20;;
79578;SDS011;69051;52.406;5.280;2023-07-31T12:58:30;13.52;;;2.50;;
79578;SDS011;69051;52.406;5.280;2023-07-31T13:00:57;15.20;;;3.72;;
79578;SDS011;69051;52.406;5.280;2023-07-31T13:03:23;9.82;;;2.83;;
79578;SDS011;69051;52.406;5.280;2023-07-31T13:05:50;12.98;;;2.65;;
79578;SDS011;69051;52.406;5.280;2023-07-31T13:08:18;8.40;;;2.35;;
79578;SDS011;69051;52.406;5.280;2023-07-31T13:10:45;6.85;;;1.63;;
79578;SDS011;69051;52.406;5.280;2023-07-31T13:13:12;12.27;;;2.13;;
79578;SDS011;69051;52.406;5.280;2023-07-31T13:15:43;10.15;;;2.45;;
79578;SDS011;69051;52.406;5.280;2023-07-31T13:18:10;9.63;;;1.95;;
79578;SDS011;69051;52.406;5.280;2023-07-31T13:20:36;7.47;;;1.50;;
79578;SDS011;69051;52.406;5.280;2023-07-31T13:23:03;18.85;;;2.35;;
79578;SDS011;69051;52.406;5.280;2023-07-31T13:25:30;10.05;;;2.30;;
79578;SDS011;69051;52.406;5.280;2023-07-31T13:28:05;10.13;;;2.88;;
79578;SDS011;69051;52.406;5.280;2023-07-31T13:33:06;14.38;;;2.60;;
79578;SDS011;69051;52.406;5.280;2023-07-31T13:35:45;9.02;;;1.77;;
79578;SDS011;69051;52.406;5.280;2023-07-31T13:38:11;8.02;;;1.50;;
79578;SDS011;69051;52.406;5.280;2023-07-31T13:40:38;5.82;;;1.70;;
79578;SDS011;69051;52.406;5.280;2023-07-31T13:43:04;8.05;;;2.00;;
79578;SDS011;69051;52.406;5.280;2023-07-31T13:45:32;4.45;;;1.65;;
79578;SDS011;69051;52.406;5.280;2023-07-31T13:50:28;9.00;;;2.08;;
79578;SDS011;69051;52.406;5.280;2023-07-31T13:52:55;7.53;;;1.85;;
79578;SDS011;69051;52.406;5.280;2023-07-31T13:55:22;6.63;;;2.08;;
79578;SDS011;69051;52.406;5.280;2023-07-31T13:57:48;6.25;;;1.63;;
79578;SDS011;69051;52.406;5.280;2023-07-31T14:00:15;8.15;;;1.63;;
79578;SDS011;69051;52.406;5.280;2023-07-31T14:02:42;10.15;;;2.85;;
79578;SDS011;69051;52.406;5.280;2023-07-31T14:05:08;6.55;;;1.77;;
79578;SDS011;69051;52.406;5.280;2023-07-31T14:07:35;6.43;;;2.03;;
79578;SDS011;69051;52.406;5.280;2023-07-31T14:10:02;6.63;;;2.00;;
79578;SDS011;69051;52.406;5.280;2023-07-31T14:12:30;9.00;;;2.03;;
79578;SDS011;69051;52.406;5.280;2023-07-31T14:15:08;6.18;;;1.80;;
79578;SDS011;69051;52.406;5.280;2023-07-31T14:17:34;8.73;;;1.77;;
79578;SDS011;69051;52.406;5.280;2023-07-31T14:20:02;9.63;;;1.90;;
79578;SDS011;69051;52.406;5.280;2023-07-31T14:22:30;10.27;;;2.00;;
79578;SDS011;69051;52.406;5.280;2023-07-31T14:24:56;7.97;;;1.80;;
79578;SDS011;69051;52.406;5.280;2023-07-31T14:27:23;8.65;;;1.67;;
79578;SDS011;69051;52.406;5.280;2023-07-31T14:29:49;8.85;;;2.00;;
79578;SDS011;69051;52.406;5.280;2023-07-31T14:32:16;7.07;;;1.92;;
79578;SDS011;69051;52.406;5.280;2023-07-31T14:34:42;5.30;;;1.75;;
79578;SDS011;69051;52.406;5.280;2023-07-31T14:37:09;6.82;;;1.50;;
79578;SDS011;69051;52.406;5.280;2023-07-31T14:39:35;5.78;;;1.50;;
79578;SDS011;69051;52.406;5.280;2023-07-31T14:42:06;4.15;;;1.27;;
79578;SDS011;69051;52.406;5.280;2023-07-31T14:44:32;5.57;;;1.25;;
79578;SDS011;69051;52.406;5.280;2023-07-31T14:46:59;5.10;;;1.60;;
79578;SDS011;69051;52.406;5.280;2023-07-31T14:49:26;8.75;;;1.73;;
79578;SDS011;69051;52.406;5.280;2023-07-31T14:51:54;9.32;;;2.13;;
79578;SDS011;69051;52.406;5.280;2023-07-31T14:54:20;7.72;;;1.70;;
79578;SDS011;69051;52.406;5.280;2023-07-31T14:56:47;5.22;;;1.60;;
79578;SDS011;69051;52.406;5.280;2023-07-31T14:59:13;10.45;;;1.90;;
79578;SDS011;69051;52.406;5.280;2023-07-31T15:01:41;8.20;;;1.80;;
79578;SDS011;69051;52.406;5.280;2023-07-31T15:04:08;6.72;;;1.73;;
79578;SDS011;69051;52.406;5.280;2023-07-31T15:06:34;9.63;;;1.88;;